Time;durP1;ratioP1;P1;durP2;ratioP2;P2;SDS_P1;SDS_P2;PMS_P1;PMS_P2;Temp;Humidity;BMP_temperature;BMP_pressure;BME280_temperature;BME280_humidity;BME280_pressure;Samples;Min_cycle;Max_cycle;Signal;HPM_P1;HPM_P2
2022/04/03 00:00:14;;;;;;;6.63;4.17;;;;;;;;;;5118187;27;20057;-26
2022/04/03 00:02:40;;;;;;;3.83;2.70;;;;;;;;;;5136499;27;20058;-28
2022/04/03 00:05:07;;;;;;;10.00;3.83;;;;;;;;;;5136155;27;20511;-27
2022/04/03 00:07:33;;;;;;;13.40;4.97;;;;;;;;;;5136419;27;20043;-27
2022/04/03 00:09:59;;;;;;;5.97;3.27;;;;;;;;;;5118819;27;20392;-27
2022/04/03 00:12:26;;;;;;;5.27;3.03;;;;;;;;;;5136330;27;20043;-26
2022/04/03 00:14:52;;;;;;;8.80;3.20;;;;;;;;;;5136832;27;20078;-26
2022/04/03 00:17:18;;;;;;;9.20;3.70;;;;;;;;;;5136691;27;20043;-26
2022/04/03 00:19:44;;;;;;;8.43;3.10;;;;;;;;;;5136713;27;20160;-27
2022/04/03 00:22:13;;;;;;;5.73;3.03;;;;;;;;;;5117806;27;20051;-27
2022/04/03 00:24:41;;;;;;;8.47;3.07;;;;;;;;;;5118270;27;20129;-26
2022/04/03 00:27:07;;;;;;;6.27;2.97;;;;;;;;;;5135996;27;20176;-27
2022/04/03 00:29:33;;;;;;;5.53;2.60;;;;;;;;;;5135953;27;20047;-27
2022/04/03 00:32:02;;;;;;;5.43;2.93;;;;;;;;;;5100432;27;20051;-26
2022/04/03 00:34:28;;;;;;;5.80;2.97;;;;;;;;;;5117541;27;20054;-26
2022/04/03 00:36:54;;;;;;;7.83;3.40;;;;;;;;;;5136012;27;20047;-27
2022/04/03 00:39:21;;;;;;;7.10;2.93;;;;;;;;;;5135766;27;20039;-26
2022/04/03 00:41:48;;;;;;;8.13;3.17;;;;;;;;;;5135716;27;20046;-26
2022/04/03 00:44:14;;;;;;;6.20;3.13;;;;;;;;;;5135655;27;20047;-27
2022/04/03 00:46:41;;;;;;;6.07;3.20;;;;;;;;;;5135629;27;20043;-27
2022/04/03 00:49:07;;;;;;;4.70;2.87;;;;;;;;;;5117497;27;20086;-26
2022/04/03 00:51:34;;;;;;;8.47;3.03;;;;;;;;;;5134932;27;20051;-25
2022/04/03 00:54:01;;;;;;;5.57;2.80;;;;;;;;;;5136058;27;20373;-26
2022/04/03 00:56:27;;;;;;;4.20;2.70;;;;;;;;;;5135363;27;20039;-26
2022/04/03 00:58:53;;;;;;;5.67;2.73;;;;;;;;;;5135300;27;20055;-26
2022/04/03 01:01:22;;;;;;;4.70;2.57;;;;;;;;;;5135604;27;20058;-25
2022/04/03 01:03:49;;;;;;;6.23;3.20;;;;;;;;;;5116982;27;20045;-25
2022/04/03 01:06:15;;;;;;;6.97;2.53;;;;;;;;;;5135246;27;20399;-26
2022/04/03 01:08:42;;;;;;;3.90;2.67;;;;;;;;;;5135211;27;20079;-26
2022/04/03 01:11:08;;;;;;;4.93;2.77;;;;;;;;;;5117132;27;20086;-27
2022/04/03 01:13:43;;;;;;;6.20;3.13;;;;;;;;;;5135430;27;20047;-27
2022/04/03 01:16:10;;;;;;;5.67;2.67;;;;;;;;;;5135637;27;20130;-26
2022/04/03 01:18:36;;;;;;;5.67;3.10;;;;;;;;;;5135100;27;20082;-26
2022/04/03 01:21:02;;;;;;;5.50;2.80;;;;;;;;;;5135117;27;20091;-27
2022/04/03 01:23:28;;;;;;;7.27;3.07;;;;;;;;;;5134693;27;20451;-26
2022/04/03 01:25:54;;;;;;;17.37;3.60;;;;;;;;;;5134980;27;20381;-26
2022/04/03 01:28:20;;;;;;;5.87;3.17;;;;;;;;;;5135734;27;20039;-26
2022/04/03 01:30:46;;;;;;;4.90;2.67;;;;;;;;;;5117212;27;20540;-25
2022/04/03 01:33:12;;;;;;;7.20;2.70;;;;;;;;;;5116711;27;20047;-27
2022/04/03 01:35:38;;;;;;;6.53;2.57;;;;;;;;;;5116588;27;20078;-26
2022/04/03 01:38:04;;;;;;;4.00;2.87;;;;;;;;;;5134717;27;20039;-26
2022/04/03 01:40:34;;;;;;;4.60;1.97;;;;;;;;;;5134787;27;20043;-27
2022/04/03 01:43:00;;;;;;;4.10;2.20;;;;;;;;;;5135331;27;20057;-27
2022/04/03 01:45:26;;;;;;;5.87;2.23;;;;;;;;;;5134727;27;20086;-26
2022/04/03 01:47:52;;;;;;;4.33;2.07;;;;;;;;;;5116648;27;20047;-26
2022/04/03 01:50:18;;;;;;;3.23;1.57;;;;;;;;;;5116369;28;20047;-27
2022/04/03 01:52:44;;;;;;;4.57;2.33;;;;;;;;;;5135140;28;20047;-27
2022/04/03 01:55:10;;;;;;;3.93;1.67;;;;;;;;;;5134607;28;20051;-27
2022/04/03 01:57:37;;;;;;;4.33;2.10;;;;;;;;;;5134496;28;20046;-26
2022/04/03 02:00:06;;;;;;;2.33;1.60;;;;;;;;;;5134970;28;20051;-27
2022/04/03 02:02:32;;;;;;;4.77;1.90;;;;;;;;;;5116983;28;20499;-27
2022/04/03 02:04:58;;;;;;;6.87;1.90;;;;;;;;;;5138738;27;20058;-27
2022/04/03 02:07:25;;;;;;;3.13;1.93;;;;;;;;;;5138761;27;20039;-27
2022/04/03 02:09:51;;;;;;;5.57;1.60;;;;;;;;;;5120288;27;20058;-27
2022/04/03 02:12:17;;;;;;;4.30;2.00;;;;;;;;;;5138640;27;20498;-27
2022/04/03 02:14:44;;;;;;;4.07;1.30;;;;;;;;;;5139459;27;20099;-27
2022/04/03 02:17:10;;;;;;;3.23;1.53;;;;;;;;;;5138511;27;20039;-27
2022/04/03 02:19:36;;;;;;;4.37;1.60;;;;;;;;;;5138533;27;20457;-27
2022/04/03 02:22:02;;;;;;;2.53;1.33;;;;;;;;;;5138488;27;20043;-27
2022/04/03 02:24:28;;;;;;;2.30;1.40;;;;;;;;;;5120304;27;20083;-27
2022/04/03 02:26:54;;;;;;;1.13;1.00;;;;;;;;;;5138347;27;20047;-27
2022/04/03 02:29:21;;;;;;;1.73;1.03;;;;;;;;;;5120592;27;20054;-27
2022/04/03 02:31:47;;;;;;;4.90;1.77;;;;;;;;;;5138165;27;20090;-27
2022/04/03 02:34:13;;;;;;;2.57;1.53;;;;;;;;;;5138274;27;20035;-27
2022/04/03 02:36:40;;;;;;;4.90;1.50;;;;;;;;;;5137772;27;20519;-26
2022/04/03 02:39:06;;;;;;;3.57;1.23;;;;;;;;;;5138174;27;20039;-26
2022/04/03 02:41:33;;;;;;;1.57;1.40;;;;;;;;;;5138058;27;20046;-27
2022/04/03 02:43:59;;;;;;;6.10;1.60;;;;;;;;;;5120106;27;20047;-27
2022/04/03 02:46:25;;;;;;;3.23;1.47;;;;;;;;;;5138508;27;20049;-27
2022/04/03 02:48:51;;;;;;;2.90;1.20;;;;;;;;;;5137948;27;20445;-27
2022/04/03 02:51:17;;;;;;;4.13;1.43;;;;;;;;;;5137979;27;20054;-27
2022/04/03 02:53:44;;;;;;;4.57;1.30;;;;;;;;;;5138411;27;20073;-27
2022/04/03 02:56:10;;;;;;;5.93;1.97;;;;;;;;;;5137726;27;20047;-27
2022/04/03 02:58:36;;;;;;;2.63;1.33;;;;;;;;;;5137816;27;20055;-27
2022/04/03 03:01:02;;;;;;;4.03;1.30;;;;;;;;;;5137776;27;20051;-27
2022/04/03 03:03:28;;;;;;;2.43;1.37;;;;;;;;;;5119573;27;20050;-27
2022/04/03 03:05:54;;;;;;;2.47;1.37;;;;;;;;;;5119316;27;20047;-27
2022/04/03 03:08:20;;;;;;;1.43;0.97;;;;;;;;;;5119271;27;20400;-27
2022/04/03 03:10:46;;;;;;;2.90;1.13;;;;;;;;;;5137522;27;20046;-27
2022/04/03 03:13:12;;;;;;;4.77;1.47;;;;;;;;;;5137439;27;20046;-27
2022/04/03 03:15:39;;;;;;;5.33;1.30;;;;;;;;;;5137543;27;20049;-27
2022/04/03 03:18:05;;;;;;;5.03;1.30;;;;;;;;;;5137337;27;20087;-27
2022/04/03 03:20:31;;;;;;;6.73;2.17;;;;;;;;;;5119034;27;20442;-27
2022/04/03 03:22:57;;;;;;;2.40;1.30;;;;;;;;;;5137322;27;20047;-27
2022/04/03 03:25:24;;;;;;;1.93;1.33;;;;;;;;;;5137242;27;20051;-27
2022/04/03 03:27:50;;;;;;;5.40;1.70;;;;;;;;;;5137521;27;20043;-28
2022/04/03 03:30:16;;;;;;;2.60;1.50;;;;;;;;;;5137082;27;20095;-27
2022/04/03 03:32:42;;;;;;;4.40;1.53;;;;;;;;;;5137098;27;20043;-27
2022/04/03 03:35:08;;;;;;;2.80;1.00;;;;;;;;;;5101825;27;20043;-27
2022/04/03 03:37:34;;;;;;;6.10;1.90;;;;;;;;;;5137273;27;20039;-27
2022/04/03 03:40:01;;;;;;;4.13;1.23;;;;;;;;;;5136966;27;20043;-27
2022/04/03 03:42:27;;;;;;;2.93;1.37;;;;;;;;;;5136951;27;20134;-27
2022/04/03 03:44:53;;;;;;;3.47;1.13;;;;;;;;;;5118621;27;20039;-27
2022/04/03 03:47:19;;;;;;;2.60;1.40;;;;;;;;;;5136895;27;20114;-27
2022/04/03 03:49:46;;;;;;;7.70;1.90;;;;;;;;;;5118475;27;20039;-27
2022/04/03 03:52:12;;;;;;;5.90;1.70;;;;;;;;;;5137319;27;20358;-27
2022/04/03 03:54:38;;;;;;;5.40;1.87;;;;;;;;;;5136695;27;20058;-28
2022/04/03 03:57:05;;;;;;;4.87;1.70;;;;;;;;;;5136615;27;20132;-27
2022/04/03 03:59:31;;;;;;;3.70;1.60;;;;;;;;;;5118069;27;20182;-27
2022/04/03 04:01:57;;;;;;;2.13;1.57;;;;;;;;;;5136830;27;20058;-28
2022/04/03 04:04:23;;;;;;;5.33;1.63;;;;;;;;;;5136514;27;20134;-26
2022/04/03 04:06:49;;;;;;;3.33;1.50;;;;;;;;;;5136433;27;20545;-27
2022/04/03 04:09:15;;;;;;;3.07;1.60;;;;;;;;;;5136400;27;20484;-27
2022/04/03 04:11:42;;;;;;;6.57;1.50;;;;;;;;;;5136372;27;20039;-27
2022/04/03 04:14:08;;;;;;;3.63;1.50;;;;;;;;;;5136022;27;20496;-28
2022/04/03 04:16:34;;;;;;;2.30;1.30;;;;;;;;;;5136470;27;20122;-27
2022/04/03 04:19:00;;;;;;;3.73;1.50;;;;;;;;;;5117575;27;20512;-27
2022/04/03 04:21:27;;;;;;;3.73;1.40;;;;;;;;;;5136172;27;20051;-27
2022/04/03 04:23:53;;;;;;;3.47;1.87;;;;;;;;;;5117806;27;20495;-26
2022/04/03 04:26:19;;;;;;;5.17;1.60;;;;;;;;;;5117044;27;20066;-27
2022/04/03 04:28:48;;;;;;;7.43;1.67;;;;;;;;;;5117702;27;20058;-27
2022/04/03 04:31:15;;;;;;;3.00;1.83;;;;;;;;;;5136014;27;20050;-27
2022/04/03 04:33:41;;;;;;;5.93;2.20;;;;;;;;;;5118030;27;20426;-27
2022/04/03 04:36:07;;;;;;;3.30;2.10;;;;;;;;;;5136342;27;20038;-27
2022/04/03 04:38:33;;;;;;;4.23;1.60;;;;;;;;;;5135799;27;20043;-27
2022/04/03 04:40:59;;;;;;;3.60;1.70;;;;;;;;;;5135832;27;20050;-27
2022/04/03 04:43:25;;;;;;;4.23;1.90;;;;;;;;;;5136180;27;20391;-27
2022/04/03 04:45:51;;;;;;;7.00;2.00;;;;;;;;;;5135731;27;20392;-26
2022/04/03 04:48:18;;;;;;;4.37;2.40;;;;;;;;;;5135714;27;20082;-26
2022/04/03 04:50:44;;;;;;;4.90;2.40;;;;;;;;;;5135586;27;20039;-27
2022/04/03 04:53:10;;;;;;;4.80;2.63;;;;;;;;;;5135499;27;20043;-26
2022/04/03 04:55:36;;;;;;;3.47;2.50;;;;;;;;;;5135479;27;20047;-27
2022/04/03 04:58:02;;;;;;;7.63;2.43;;;;;;;;;;5135131;27;20384;-26
2022/04/03 05:00:29;;;;;;;6.40;2.33;;;;;;;;;;5117622;27;20107;-26
2022/04/03 05:02:55;;;;;;;4.73;2.47;;;;;;;;;;5135926;27;20051;-26
2022/04/03 05:05:22;;;;;;;6.90;2.23;;;;;;;;;;5135294;27;20051;-27
2022/04/03 05:07:51;;;;;;;5.27;2.83;;;;;;;;;;5135244;27;20040;-26
2022/04/03 05:10:18;;;;;;;5.80;2.50;;;;;;;;;;5136008;27;20129;-27
2022/04/03 05:12:44;;;;;;;6.47;2.57;;;;;;;;;;5135170;27;20046;-26
2022/04/03 05:15:11;;;;;;;7.23;2.70;;;;;;;;;;5135443;27;20463;-27
2022/04/03 05:17:41;;;;;;;5.87;2.50;;;;;;;;;;5134995;27;20086;-26
2022/04/03 05:20:08;;;;;;;3.57;2.33;;;;;;;;;;5135107;27;20529;-26
2022/04/03 05:22:34;;;;;;;9.47;2.40;;;;;;;;;;5135043;27;20460;-26
2022/04/03 05:25:03;;;;;;;6.47;2.60;;;;;;;;;;5116950;27;20125;-27
2022/04/03 05:27:29;;;;;;;5.03;2.50;;;;;;;;;;5134947;27;20043;-27
2022/04/03 05:29:56;;;;;;;6.37;2.20;;;;;;;;;;5134821;27;20129;-26
2022/04/03 05:32:29;;;;;;;5.80;2.37;;;;;;;;;;5134864;27;20047;-27
2022/04/03 05:34:56;;;;;;;8.83;2.30;;;;;;;;;;5135380;27;20047;-26
2022/04/03 05:37:22;;;;;;;5.37;2.37;;;;;;;;;;5134567;27;20053;-27
2022/04/03 05:39:48;;;;;;;8.67;2.43;;;;;;;;;;5099686;27;20046;-27
2022/04/03 05:42:14;;;;;;;3.43;2.20;;;;;;;;;;5116481;27;20058;-26
2022/04/03 05:44:41;;;;;;;7.27;2.37;;;;;;;;;;5134780;27;20089;-26
2022/04/03 05:47:07;;;;;;;5.30;2.13;;;;;;;;;;5134746;27;20047;-28
2022/04/03 05:49:33;;;;;;;3.87;2.13;;;;;;;;;;5116630;28;20051;-27
2022/04/03 05:51:59;;;;;;;3.07;1.83;;;;;;;;;;5134700;28;20083;-27
2022/04/03 05:54:25;;;;;;;7.37;1.83;;;;;;;;;;5134678;28;20047;-27
2022/04/03 05:56:51;;;;;;;2.80;1.50;;;;;;;;;;5134589;28;20035;-27
2022/04/03 05:59:20;;;;;;;3.53;1.50;;;;;;;;;;5134754;28;20051;-27
2022/04/03 06:01:49;;;;;;;4.63;1.93;;;;;;;;;;5134555;28;20098;-27
2022/04/03 06:04:16;;;;;;;4.27;1.70;;;;;;;;;;5134512;28;20047;-27
2022/04/03 06:06:42;;;;;;;5.60;1.57;;;;;;;;;;5116186;28;20043;-27
2022/04/03 06:09:08;;;;;;;3.33;1.47;;;;;;;;;;5134474;28;20515;-27
2022/04/03 06:11:34;;;;;;;4.23;1.43;;;;;;;;;;5134502;28;20123;-27
2022/04/03 06:14:00;;;;;;;2.83;1.10;;;;;;;;;;5115961;28;20403;-27
2022/04/03 06:16:27;;;;;;;3.57;1.30;;;;;;;;;;5134333;28;20050;-27
2022/04/03 06:18:53;;;;;;;3.40;1.23;;;;;;;;;;5099068;28;20086;-27
2022/04/03 06:21:20;;;;;;;2.67;0.90;;;;;;;;;;5134048;28;20416;-28
2022/04/03 06:23:46;;;;;;;5.00;1.37;;;;;;;;;;5134367;28;20047;-27
2022/04/03 06:26:12;;;;;;;4.47;1.27;;;;;;;;;;5116036;28;20130;-27
2022/04/03 06:28:38;;;;;;;4.30;1.27;;;;;;;;;;5134554;28;20051;-27
2022/04/03 06:31:04;;;;;;;6.40;1.30;;;;;;;;;;5134245;28;20051;-26
2022/04/03 06:33:30;;;;;;;5.17;1.10;;;;;;;;;;5134226;28;20051;-27
2022/04/03 06:35:56;;;;;;;3.87;1.37;;;;;;;;;;5134785;28;20043;-27
2022/04/03 06:38:23;;;;;;;4.80;1.37;;;;;;;;;;5134710;28;20042;-28
2022/04/03 06:40:50;;;;;;;5.67;1.87;;;;;;;;;;5083287;28;20086;-27
2022/04/03 06:43:26;;;;;;;4.67;1.50;;;;;;;;;;5134098;28;20054;-26
2022/04/03 06:45:53;;;;;;;7.13;1.80;;;;;;;;;;5134127;28;20047;-27
2022/04/03 06:48:19;;;;;;;6.87;2.07;;;;;;;;;;5134100;27;20047;-27
2022/04/03 06:50:45;;;;;;;6.90;1.60;;;;;;;;;;5137974;27;20133;-27
2022/04/03 06:53:11;;;;;;;10.10;2.40;;;;;;;;;;5137692;27;20046;-27
2022/04/03 06:55:37;;;;;;;3.90;1.10;;;;;;;;;;5138113;27;20039;-27
2022/04/03 06:58:04;;;;;;;4.07;1.40;;;;;;;;;;5120092;27;20047;-27
2022/04/03 07:00:31;;;;;;;4.73;1.40;;;;;;;;;;5119507;27;20050;-27
2022/04/03 07:02:57;;;;;;;5.97;0.97;;;;;;;;;;5137645;27;20130;-27
2022/04/03 07:05:24;;;;;;;8.73;1.60;;;;;;;;;;5137576;27;20127;-27
2022/04/03 07:07:53;;;;;;;5.17;1.30;;;;;;;;;;5138319;27;20047;-27
2022/04/03 07:10:20;;;;;;;3.57;1.40;;;;;;;;;;5119628;27;20047;-27
2022/04/03 07:12:46;;;;;;;3.50;0.90;;;;;;;;;;5137748;27;20126;-27
2022/04/03 07:15:13;;;;;;;3.35;0.80;;;;;;;;;;5137346;27;20043;-27
2022/04/03 07:17:43;;;;;;;3.33;0.90;;;;;;;;;;5119812;27;20043;-27
2022/04/03 07:20:10;;;;;;;6.23;0.70;;;;;;;;;;5137858;27;20050;-27
2022/04/03 07:22:36;;;;;;;2.13;0.90;;;;;;;;;;5137174;27;20050;-27
2022/04/03 07:25:03;;;;;;;5.67;1.00;;;;;;;;;;5137112;27;20043;-26
2022/04/03 07:27:30;;;;;;;4.63;1.00;;;;;;;;;;5137066;27;20048;-27
2022/04/03 07:29:56;;;;;;;3.97;1.13;;;;;;;;;;5137058;27;20472;-27
2022/04/03 07:32:22;;;;;;;6.20;1.00;;;;;;;;;;5136893;27;20089;-27
2022/04/03 07:34:49;;;;;;;4.72;0.80;;;;;;;;;;5137671;27;20100;-28
2022/04/03 07:37:15;;;;;;;4.10;1.83;;;;;;;;;;5136886;27;20387;-27
2022/04/03 07:39:41;;;;;;;2.28;0.73;;;;;;;;;;5118517;27;20047;-27
2022/04/03 07:42:08;;;;;;;1.88;0.73;;;;;;;;;;5136875;27;20039;-27
2022/04/03 07:44:34;;;;;;;2.97;0.82;;;;;;;;;;5136886;27;20043;-27
2022/04/03 07:47:00;;;;;;;2.40;0.70;;;;;;;;;;5118658;27;20090;-27
2022/04/03 07:49:27;;;;;;;5.10;0.70;;;;;;;;;;5137558;27;20054;-27
2022/04/03 07:51:53;;;;;;;6.22;0.57;;;;;;;;;;5136983;27;20043;-27
2022/04/03 07:54:19;;;;;;;3.58;0.52;;;;;;;;;;5136597;27;20050;-27
2022/04/03 07:56:45;;;;;;;4.07;0.95;;;;;;;;;;5136824;27;20112;-27
2022/04/03 07:59:12;;;;;;;5.55;0.75;;;;;;;;;;5136368;27;20055;-27
2022/04/03 08:01:38;;;;;;;6.03;0.82;;;;;;;;;;5136501;27;20177;-28
2022/04/03 08:04:04;;;;;;;2.28;0.88;;;;;;;;;;5136480;27;20528;-27
2022/04/03 08:06:30;;;;;;;4.93;0.98;;;;;;;;;;5137062;27;20043;-28
2022/04/03 08:08:56;;;;;;;5.65;0.98;;;;;;;;;;5136395;27;20078;-27
2022/04/03 08:11:22;;;;;;;5.82;0.80;;;;;;;;;;5136384;27;20074;-27
2022/04/03 08:13:49;;;;;;;7.78;1.17;;;;;;;;;;5136280;27;20129;-28
2022/04/03 08:16:15;;;;;;;5.80;1.08;;;;;;;;;;5136667;27;20043;-27
2022/04/03 08:18:42;;;;;;;2.42;0.40;;;;;;;;;;5136162;27;20150;-27
2022/04/03 08:21:08;;;;;;;4.43;0.90;;;;;;;;;;5136431;27;20043;-27
2022/04/03 08:23:34;;;;;;;7.15;0.60;;;;;;;;;;5136885;27;20039;-27
2022/04/03 08:26:00;;;;;;;4.13;0.52;;;;;;;;;;5117665;27;20043;-27
2022/04/03 08:28:28;;;;;;;3.25;0.43;;;;;;;;;;5117763;27;20047;-27
2022/04/03 08:30:54;;;;;;;3.10;0.57;;;;;;;;;;5136506;27;20051;-27
2022/04/03 08:33:21;;;;;;;6.90;0.52;;;;;;;;;;5136311;27;20125;-27
2022/04/03 08:35:50;;;;;;;3.03;0.50;;;;;;;;;;5135823;27;20043;-27
2022/04/03 08:38:17;;;;;;;4.70;0.40;;;;;;;;;;5135691;27;20459;-27
2022/04/03 08:40:43;;;;;;;2.63;0.45;;;;;;;;;;5117481;27;20090;-27
2022/04/03 08:43:09;;;;;;;4.07;0.40;;;;;;;;;;5135682;27;20046;-27
2022/04/03 08:45:35;;;;;;;3.38;0.40;;;;;;;;;;5135630;27;20492;-28
2022/04/03 08:48:02;;;;;;;3.25;0.25;;;;;;;;;;5117300;27;20039;-27
2022/04/03 08:50:30;;;;;;;3.78;0.43;;;;;;;;;;5135665;27;20126;-27
2022/04/03 08:53:01;;;;;;;4.18;0.63;;;;;;;;;;5136346;27;20373;-27
2022/04/03 08:55:28;;;;;;;2.47;0.40;;;;;;;;;;5117150;27;20069;-27
2022/04/03 08:57:54;;;;;;;1.77;0.50;;;;;;;;;;5116784;27;20070;-27
2022/04/03 09:00:21;;;;;;;4.45;0.82;;;;;;;;;;5117351;27;20082;-27
2022/04/03 09:02:50;;;;;;;4.20;0.95;;;;;;;;;;5136169;27;20047;-28
2022/04/03 09:05:17;;;;;;;6.60;0.65;;;;;;;;;;5135886;27;20096;-27
2022/04/03 09:07:43;;;;;;;3.15;0.93;;;;;;;;;;5136114;27;20043;-27
2022/04/03 09:10:13;;;;;;;2.17;0.45;;;;;;;;;;5135452;27;20490;-27
2022/04/03 09:12:46;;;;;;;3.58;0.40;;;;;;;;;;5134618;27;20100;-28
2022/04/03 09:15:19;;;;;;;3.75;0.50;;;;;;;;;;5135356;27;20395;-27
2022/04/03 09:17:45;;;;;;;;;;;;;;;;;;5135443;27;20043;-27
2022/04/03 09:20:16;;;;;;;6.30;1.02;;;;;;;;;;5135616;27;19919;-27
2022/04/03 09:22:43;;;;;;;2.63;0.40;;;;;;;;;;5134985;27;20408;-27
2022/04/03 09:25:10;;;;;;;7.88;0.50;;;;;;;;;;5116568;27;20050;-27
2022/04/03 09:27:45;;;;;;;2.65;0.43;;;;;;;;;;5134877;27;20046;-27
2022/04/03 09:30:11;;;;;;;5.68;0.50;;;;;;;;;;5135578;27;20050;-27
2022/04/03 09:32:51;;;;;;;5.78;0.80;;;;;;;;;;5134764;27;20049;-27
2022/04/03 09:35:18;;;;;;;4.00;0.80;;;;;;;;;;5134841;27;20379;-28
2022/04/03 09:38:02;;;;;;;2.55;0.52;;;;;;;;;;5134350;27;20520;-27
2022/04/03 09:40:32;;;;;;;5.75;0.40;;;;;;;;;;5134754;27;20039;-28
2022/04/03 09:43:27;;;;;;;4.80;0.52;;;;;;;;;;5135489;27;20138;-27
2022/04/03 09:45:54;;;;;;;4.38;0.40;;;;;;;;;;5112705;27;20411;-27
2022/04/03 09:48:25;;;;;;;3.30;1.25;;;;;;;;;;5134384;27;20488;-27
2022/04/03 09:51:03;;;;;;;2.75;0.77;;;;;;;;;;5116068;28;20124;-27
2022/04/03 09:53:46;;;;;;;2.95;0.88;;;;;;;;;;5134826;27;20058;-27
2022/04/03 09:56:13;;;;;;;2.78;0.70;;;;;;;;;;5116834;28;20059;-27
2022/04/03 09:58:52;;;;;;;1.45;0.40;;;;;;;;;;5134379;28;20055;-27
2022/04/03 10:01:30;;;;;;;2.33;0.40;;;;;;;;;;5134559;28;20043;-27
2022/04/03 10:03:58;;;;;;;6.32;0.85;;;;;;;;;;5135126;28;20054;-28
2022/04/03 10:06:24;;;;;;;2.80;0.40;;;;;;;;;;5116420;28;20408;-28
2022/04/03 10:08:50;;;;;;;3.80;0.50;;;;;;;;;;5134174;28;20055;-28
2022/04/03 10:11:17;;;;;;;3.08;0.40;;;;;;;;;;5134481;28;20047;-28
2022/04/03 10:13:44;;;;;;;4.68;0.43;;;;;;;;;;5134386;28;20039;-28
2022/04/03 10:16:13;;;;;;;1.60;0.22;;;;;;;;;;5134934;28;20095;-28
2022/04/03 10:18:43;;;;;;;3.67;0.40;;;;;;;;;;5134230;28;20563;-27
2022/04/03 10:21:13;;;;;;;2.45;0.32;;;;;;;;;;5134340;28;20051;-27
2022/04/03 10:23:41;;;;;;;3.35;0.50;;;;;;;;;;5134418;27;20552;-27
2022/04/03 10:26:08;;;;;;;4.68;0.60;;;;;;;;;;5138267;27;20054;-27
2022/04/03 10:28:35;;;;;;;1.55;0.22;;;;;;;;;;5138471;27;20050;-27
2022/04/03 10:31:10;;;;;;;2.95;0.70;;;;;;;;;;5138332;27;20059;-28
2022/04/03 10:33:40;;;;;;;2.97;0.45;;;;;;;;;;5119765;27;20043;-27
2022/04/03 10:36:10;;;;;;;3.00;0.63;;;;;;;;;;5138076;27;20445;-27
2022/04/03 10:38:55;;;;;;;3.58;0.50;;;;;;;;;;5119827;27;20046;-27
2022/04/03 10:41:29;;;;;;;3.72;0.43;;;;;;;;;;5137991;27;20082;-27
2022/04/03 10:44:13;;;;;;;4.85;0.40;;;;;;;;;;5120537;27;20055;-27
2022/04/03 10:46:58;;;;;;;0.77;0.30;;;;;;;;;;5137876;27;20054;-27
2022/04/03 10:49:31;;;;;;;0.85;0.22;;;;;;;;;;5138250;27;20051;-27
2022/04/03 10:52:04;;;;;;;2.08;0.28;;;;;;;;;;5137756;27;20130;-27
2022/04/03 10:54:31;;;;;;;2.05;0.38;;;;;;;;;;5138305;27;20046;-27
2022/04/03 10:57:16;;;;;;;0.50;0.20;;;;;;;;;;5137620;27;20066;-27
2022/04/03 10:59:42;;;;;;;0.80;0.20;;;;;;;;;;5137295;27;20067;-28
2022/04/03 11:02:14;;;;;;;2.38;0.40;;;;;;;;;;5102473;27;20058;-27
2022/04/03 11:04:41;;;;;;;4.28;0.95;;;;;;;;;;5137746;27;20039;-27
2022/04/03 11:07:13;;;;;;;2.00;0.25;;;;;;;;;;5137549;27;20163;-27
2022/04/03 11:09:46;;;;;;;1.40;0.22;;;;;;;;;;5119226;27;20130;-27
2022/04/03 11:12:12;;;;;;;;;;;;;;;;;;5119967;27;20100;-27
2022/04/03 11:14:58;;;;;;;2.08;0.30;;;;;;;;;;5137329;27;20323;-27
2022/04/03 11:17:43;;;;;;;3.13;0.30;;;;;;;;;;5119093;27;20083;-27
2022/04/03 11:20:09;;;;;;;3.95;0.50;;;;;;;;;;5137242;27;20043;-27
2022/04/03 11:22:36;;;;;;;3.58;0.43;;;;;;;;;;5137159;27;20047;-27
2022/04/03 11:25:03;;;;;;;3.15;0.40;;;;;;;;;;5119060;27;20472;-27
2022/04/03 11:27:29;;;;;;;1.80;0.32;;;;;;;;;;5137516;27;20100;-27
2022/04/03 11:29:55;;;;;;;0.20;0.10;;;;;;;;;;5137843;27;20051;-27
2022/04/03 11:32:21;;;;;;;1.73;0.20;;;;;;;;;;5101800;27;20047;-27
2022/04/03 11:34:57;;;;;;;0.85;0.30;;;;;;;;;;5118276;27;20138;-27
2022/04/03 11:37:23;;;;;;;0.75;0.10;;;;;;;;;;5137233;27;20464;-27
2022/04/03 11:39:52;;;;;;;0.65;0.30;;;;;;;;;;5136863;27;20047;-27
2022/04/03 11:42:22;;;;;;;2.05;0.20;;;;;;;;;;5136917;27;20047;-27
2022/04/03 11:44:52;;;;;;;1.15;0.45;;;;;;;;;;5137386;27;20047;-27
2022/04/03 11:47:20;;;;;;;1.65;0.20;;;;;;;;;;5136991;27;20396;-27
2022/04/03 11:49:46;;;;;;;3.60;0.40;;;;;;;;;;5131258;27;20518;-27
2022/04/03 11:52:12;;;;;;;1.45;0.40;;;;;;;;;;5107700;27;20044;-27
2022/04/03 11:54:39;;;;;;;2.08;0.30;;;;;;;;;;5120730;27;20096;-27
2022/04/03 11:57:07;;;;;;;3.65;0.30;;;;;;;;;;5118899;27;20404;-27
2022/04/03 11:59:34;;;;;;;1.67;0.40;;;;;;;;;;5115755;28;20485;-27
2022/04/03 12:02:08;;;;;;;1.85;0.30;;;;;;;;;;5106643;27;20122;-27
2022/04/03 12:04:37;;;;;;;2.97;0.50;;;;;;;;;;5134596;27;20435;-27
2022/04/03 12:07:04;;;;;;;4.63;0.40;;;;;;;;;;5126011;27;20039;-27
2022/04/03 12:09:30;;;;;;;1.58;0.73;;;;;;;;;;5135609;27;20207;-27
2022/04/03 12:11:58;;;;;;;1.98;0.90;;;;;;;;;;5120475;27;20054;-27
2022/04/03 12:14:30;;;;;;;2.13;0.73;;;;;;;;;;5136193;27;20051;-27
2022/04/03 12:17:04;;;;;;;2.30;0.83;;;;;;;;;;5134127;27;20137;-27
2022/04/03 12:19:34;;;;;;;2.88;0.63;;;;;;;;;;5136097;27;20047;-27
2022/04/03 12:22:04;;;;;;;4.05;0.93;;;;;;;;;;5120328;27;20087;-27
2022/04/03 12:24:33;;;;;;;2.42;0.45;;;;;;;;;;5115283;28;20055;-27
2022/04/03 12:27:15;;;;;;;2.53;0.40;;;;;;;;;;5119851;27;20369;-27
2022/04/03 12:29:51;;;;;;;3.72;0.50;;;;;;;;;;5116053;28;20043;-27
2022/04/03 12:32:19;;;;;;;2.83;0.40;;;;;;;;;;5132429;27;20110;-27
2022/04/03 12:34:49;;;;;;;2.53;0.80;;;;;;;;;;5133021;27;20172;-27
2022/04/03 12:37:16;;;;;;;1.67;0.30;;;;;;;;;;5114494;27;20057;-27
2022/04/03 12:39:42;;;;;;;2.90;0.45;;;;;;;;;;5132487;27;20043;-27
2022/04/03 12:42:08;;;;;;;3.08;0.60;;;;;;;;;;5122837;27;20122;-27
2022/04/03 12:45:08;;;;;;;2.85;0.77;;;;;;;;;;5133478;27;20054;-27
2022/04/03 12:47:36;;;;;;;3.78;1.05;;;;;;;;;;5099271;27;20047;-29
2022/04/03 12:50:05;;;;;;;4.00;0.65;;;;;;;;;;5117372;27;20528;-27
2022/04/03 12:52:52;;;;;;;2.78;0.68;;;;;;;;;;5117091;27;20377;-27
2022/04/03 12:55:24;;;;;;;2.65;0.60;;;;;;;;;;5130962;27;20118;-27
2022/04/03 13:00:53;;;;;;;1.13;0.20;;;;;;;;;;5114572;28;20085;-28
2022/04/03 13:03:25;;;;;;;3.05;0.47;;;;;;;;;;5114791;28;20538;-27
2022/04/03 13:05:55;;;;;;;4.80;0.50;;;;;;;;;;5115732;28;20065;-28
2022/04/03 13:08:21;;;;;;;2.45;0.45;;;;;;;;;;5121014;27;20838;-27
2022/04/03 13:10:55;;;;;;;1.38;0.70;;;;;;;;;;5127806;27;20042;-27
2022/04/03 13:13:25;;;;;;;4.00;0.70;;;;;;;;;;5112881;27;20092;-28
2022/04/03 13:15:52;;;;;;;4.47;0.45;;;;;;;;;;5128421;27;20480;-27
2022/04/03 13:18:19;;;;;;;4.82;0.70;;;;;;;;;;5126599;27;20473;-27
2022/04/03 13:20:49;;;;;;;2.90;0.88;;;;;;;;;;5100811;27;20169;-27
2022/04/03 13:23:15;;;;;;;1.45;0.55;;;;;;;;;;5127805;27;20043;-28
2022/04/03 13:25:41;;;;;;;3.13;0.73;;;;;;;;;;5099908;27;20039;-27
2022/04/03 13:28:07;;;;;;;1.00;0.40;;;;;;;;;;5125403;27;20622;-27
2022/04/03 13:30:34;;;;;;;1.60;0.20;;;;;;;;;;5114261;28;20051;-27
2022/04/03 13:33:00;;;;;;;3.20;0.30;;;;;;;;;;5115543;28;20417;-27
2022/04/03 13:35:26;;;;;;;2.47;0.30;;;;;;;;;;5114272;28;20055;-27
2022/04/03 13:37:53;;;;;;;1.60;0.20;;;;;;;;;;5115116;27;20549;-27
2022/04/03 13:40:19;;;;;;;0.95;0.20;;;;;;;;;;5116143;27;20044;-27
2022/04/03 13:42:45;;;;;;;0.80;0.20;;;;;;;;;;5098299;28;20116;-27
2022/04/03 13:45:12;;;;;;;3.10;0.40;;;;;;;;;;5114622;28;20061;-27
2022/04/03 13:47:39;;;;;;;2.42;0.30;;;;;;;;;;5080880;28;20039;-28
2022/04/03 13:50:05;;;;;;;0.75;0.40;;;;;;;;;;5114198;28;20043;-27
2022/04/03 13:52:31;;;;;;;3.42;0.30;;;;;;;;;;5127411;27;20071;-27
2022/04/03 13:54:57;;;;;;;3.15;0.40;;;;;;;;;;5114383;28;20055;-27
2022/04/03 13:57:24;;;;;;;1.23;0.50;;;;;;;;;;5117208;28;20134;-27
2022/04/03 13:59:56;;;;;;;1.23;0.68;;;;;;;;;;5139430;27;20429;-27
2022/04/03 14:02:22;;;;;;;3.35;0.93;;;;;;;;;;5133238;27;20096;-27
2022/04/03 14:04:48;;;;;;;2.35;0.75;;;;;;;;;;5121288;27;20058;-27
2022/04/03 14:07:15;;;;;;;3.45;0.60;;;;;;;;;;5131553;27;20046;-28
2022/04/03 14:09:41;;;;;;;2.80;0.65;;;;;;;;;;5141925;27;20171;-27
2022/04/03 14:12:07;;;;;;;2.03;0.85;;;;;;;;;;5132956;27;20051;-27
2022/04/03 14:14:33;;;;;;;4.90;0.95;;;;;;;;;;5133442;27;20548;-27
2022/04/03 14:16:59;;;;;;;2.58;1.08;;;;;;;;;;5134903;27;20043;-27
2022/04/03 14:19:25;;;;;;;4.43;1.00;;;;;;;;;;5120634;28;20177;-27
2022/04/03 14:21:54;;;;;;;4.18;1.00;;;;;;;;;;5130114;27;20042;-27
2022/04/03 14:24:20;;;;;;;2.65;0.80;;;;;;;;;;5131961;27;20116;-27
2022/04/03 14:26:46;;;;;;;4.70;1.00;;;;;;;;;;5109826;27;20051;-27
2022/04/03 14:29:12;;;;;;;1.98;0.70;;;;;;;;;;5128443;27;20181;-27
2022/04/03 14:31:38;;;;;;;2.47;0.45;;;;;;;;;;5139400;27;20050;-27
2022/04/03 14:34:04;;;;;;;2.50;0.88;;;;;;;;;;5139143;27;20092;-28
2022/04/03 14:36:30;;;;;;;3.30;0.73;;;;;;;;;;5141044;27;20039;-26
2022/04/03 14:38:56;;;;;;;1.58;0.68;;;6.50;99.90;;;;;;5139333;27;20075;-27
2022/04/03 14:41:22;;;;;;;1.10;0.20;;;6.40;99.90;;;;;;5140630;27;20078;-27
2022/04/03 14:43:47;;;;;;;2.38;0.45;;;6.30;99.90;;;;;;5112294;28;20476;-27
2022/04/03 14:46:13;;;;;;;2.08;0.52;;;6.20;99.90;;;;;;5093965;27;20087;-27